This is the latest recevied weather packets stored in our database for station/object EA2KR-10. If no packets are shown the sender has not sent any weather packets the latest 10 day(s).
| Time | Temp. | Humidity | Pressure | Rain* | Wind** | Luminosity | Snow |
|---|---|---|---|---|---|---|---|
| 1787663048 | 35° C | 30% | 1026.5 hPa | - | - | - | - |
| 1787661248 | 33.33° C | 31% | 1026.6 hPa | - | - | - | - |
| 1787659448 | 32.78° C | 33% | 1026.8 hPa | - | - | - | - |
| 1787657648 | 31.11° C | 33% | 1027 hPa | - | - | - | - |
| 1787655848 | 30° C | 34% | 1027.1 hPa | - | - | - | - |
| 1787654048 | 29.44° C | 34% | 1027.2 hPa | - | - | - | - |
| 1787652247 | 28.33° C | 35% | 1027.1 hPa | - | - | - | - |
| 1787650447 | 27.78° C | 35% | 1027 hPa | - | - | - | - |
| 1787648646 | 27.22° C | 35% | 1026.8 hPa | - | - | - | - |
| 1787646846 | 26.67° C | 35% | 1026.7 hPa | - | - | - | - |
| 1787645116 | 26.67° C | 35% | 1026.4 hPa | - | - | - | - |
| 1787645049 | 26.67° C | 35% | 1026.4 hPa | - | - | - | - |
| 1787643293 | 26.11° C | 35% | 1026.2 hPa | - | - | - | - |
| 1787643250 | 26.11° C | 35% | 1026.2 hPa | - | - | - | - |
| 1787641446 | 26.11° C | 35% | 1025.9 hPa | - | - | - | - |
| 1787639599 | 26.11° C | 35% | 1025.7 hPa | - | - | - | - |
| 1787637798 | 26.11° C | 34% | 1025.6 hPa | - | - | - | - |
| 1787635998 | 26.11° C | 33% | 1025.3 hPa | - | - | - | - |
| 1787634198 | 26.67° C | 34% | 1025.2 hPa | - | - | - | - |
| 1787632398 | 26.67° C | 33% | 1025 hPa | - | - | - | - |
| 1787630598 | 26.67° C | 33% | 1025 hPa | - | - | - | - |
| 1787628798 | 26.67° C | 32% | 1024.9 hPa | - | - | - | - |
| 1787626998 | 27.22° C | 31% | 1024.7 hPa | - | - | - | - |
| 1787625198 | 27.22° C | 30% | 1024.8 hPa | - | - | - | - |
| 1787623398 | 27.22° C | 30% | 1024.4 hPa | - | - | - | - |
* Rain since midnight (hover to see other rain measurements)
** Current wind speed in m/s (hover to see current wind gust speed)